Terminal Aerodrome Forecast
Issued by NWS

Home | Current Version | Previous Version | Text Only | Print | Product List | Glossary On
Versions: 1 2 3 4 5 6 7 8 9 10 11 12
782
FTPA31 PHFO 231744
TAFHMK
TAF
PHMK 231744Z 2318/2418 02012G21KT P6SM VCSH SCT025 SCT045
     FM231900 03020G30KT P6SM VCSH SCT025 SCT045
     FM240600 03014G22KT P6SM VCSH SCT025 SCT045=

USA.gov is the U.S. government's official web portal to all federal, state and local government web resources and services.